Time;durP1;ratioP1;P1;durP2;ratioP2;P2;SDS_P1;SDS_P2;PMS_P1;PMS_P2;Temp;Humidity;BMP_temperature;BMP_pressure;BME280_temperature;BME280_humidity;BME280_pressure;Samples;Min_cycle;Max_cycle;Signal;HPM_P1;HPM_P2
2022/10/12 00:02:09;;;;;;;13.55;2.45;;;;;;;;;;5018117;28;20034;-27
2022/10/12 00:04:35;;;;;;;6.03;2.78;;;;;;;;;;5018008;28;20068;-27
2022/10/12 00:07:01;;;;;;;11.88;2.53;;;;;;;;;;5018088;28;20088;-27
2022/10/12 00:09:27;;;;;;;16.80;3.03;;;;;;;;;;5018289;28;20041;-27
2022/10/12 00:11:53;;;;;;;7.43;2.47;;;;;;;;;;5018264;28;20026;-27
2022/10/12 00:14:20;;;;;;;11.82;2.50;;;;;;;;;;5033485;28;20029;-27
2022/10/12 00:16:46;;;;;;;11.23;2.72;;;;;;;;;;5033391;28;20060;-27
2022/10/12 00:19:13;;;;;;;19.92;2.70;;;;;;;;;;5017800;28;20037;-26
2022/10/12 00:21:39;;;;;;;10.23;2.42;;;;;;;;;;5018059;28;20359;-27
2022/10/12 00:24:05;;;;;;;11.23;1.92;;;;;;;;;;5017568;28;20041;-27
2022/10/12 00:26:32;;;;;;;7.72;2.08;;;;;;;;;;5017943;28;20026;-27
2022/10/12 00:29:02;;;;;;;8.18;2.33;;;;;;;;;;5017924;28;20051;-27
2022/10/12 00:31:28;;;;;;;10.10;2.53;;;;;;;;;;5017662;28;20359;-27
2022/10/12 00:33:55;;;;;;;9.40;2.47;;;;;;;;;;5016393;28;20036;-27
2022/10/12 00:36:23;;;;;;;16.85;3.05;;;;;;;;;;5017494;28;20025;-27
2022/10/12 00:38:50;;;;;;;12.88;3.13;;;;;;;;;;5017467;28;20478;-27
2022/10/12 00:41:17;;;;;;;8.65;2.42;;;;;;;;;;5017411;28;20029;-27
2022/10/12 00:43:44;;;;;;;8.38;1.92;;;;;;;;;;5017187;28;20095;-27
2022/10/12 00:46:13;;;;;;;13.85;2.38;;;;;;;;;;5017613;28;20033;-27
2022/10/12 00:48:39;;;;;;;11.77;2.40;;;;;;;;;;5017282;28;20045;-27
2022/10/12 00:51:05;;;;;;;5.35;2.28;;;;;;;;;;5017229;28;20528;-27
2022/10/12 00:53:42;;;;;;;14.63;2.53;;;;;;;;;;5017174;28;20060;-27
2022/10/12 00:56:12;;;;;;;7.50;2.67;;;;;;;;;;5017999;28;20037;-27
2022/10/12 00:58:38;;;;;;;11.32;3.25;;;;;;;;;;5017385;28;20025;-27
2022/10/12 01:01:05;;;;;;;14.30;2.75;;;;;;;;;;5017032;28;20037;-27
2022/10/12 01:03:31;;;;;;;6.18;2.35;;;;;;;;;;5016761;28;20041;-28
2022/10/12 01:05:59;;;;;;;5.35;2.25;;;;;;;;;;5016917;28;20037;-28
2022/10/12 01:08:25;;;;;;;10.82;1.95;;;;;;;;;;5016922;28;20030;-27
2022/10/12 01:10:51;;;;;;;9.38;2.88;;;;;;;;;;5017134;28;20111;-27
2022/10/12 01:13:18;;;;;;;12.07;2.15;;;;;;;;;;5016784;28;20340;-27
2022/10/12 01:15:49;;;;;;;7.75;2.35;;;;;;;;;;5017072;28;20037;-28
2022/10/12 01:18:15;;;;;;;;;;;;;;;;;;5017171;28;20121;-27
2022/10/12 01:20:41;;;;;;;11.18;3.05;;;;;;;;;;5016727;28;20346;-28
2022/10/12 01:23:07;;;;;;;12.95;2.38;;;;;;;;;;5016563;28;20076;-27
2022/10/12 01:25:33;;;;;;;10.57;2.03;;;;;;;;;;5016523;28;20026;-28
2022/10/12 01:28:16;;;;;;;5.55;1.50;;;;;;;;;;5016824;28;20362;-28
2022/10/12 01:30:45;;;;;;;9.18;3.30;;;;;;;;;;5016492;28;20067;-27
2022/10/12 01:33:22;;;;;;;6.47;1.98;;;;;;;;;;5016519;28;20104;-28
2022/10/12 01:36:06;;;;;;;7.80;2.95;;;;;;;;;;5016465;28;20034;-28
2022/10/12 01:38:38;;;;;;;6.47;2.10;;;;;;;;;;5016662;28;20099;-27
2022/10/12 01:41:26;;;;;;;11.50;2.17;;;;;;;;;;5016602;28;20030;-28
2022/10/12 01:43:54;;;;;;;11.57;2.53;;;;;;;;;;5015933;28;20458;-27
2022/10/12 01:46:20;;;;;;;3.95;1.58;;;;;;;;;;5016454;28;20030;-27
2022/10/12 01:48:48;;;;;;;12.40;2.60;;;;;;;;;;5016123;28;20049;-28
2022/10/12 01:51:23;;;;;;;6.28;1.80;;;;;;;;;;5016383;28;20079;-27
2022/10/12 01:53:52;;;;;;;8.25;2.70;;;;;;;;;;5016017;28;20030;-27
2022/10/12 01:56:28;;;;;;;5.90;2.30;;;;;;;;;;5016039;28;20207;-27
2022/10/12 01:59:13;;;;;;;10.63;2.83;;;;;;;;;;5016237;28;20096;-28
2022/10/12 02:01:43;;;;;;;10.75;3.08;;;;;;;;;;5016197;28;20049;-27
2022/10/12 02:04:15;;;;;;;11.75;2.45;;;;;;;;;;5015687;28;20100;-27
2022/10/12 02:06:44;;;;;;;9.13;3.10;;;;;;;;;;5016145;28;20026;-28
2022/10/12 02:09:20;;;;;;;7.10;1.58;;;;;;;;;;5016038;28;20026;-27
2022/10/12 02:11:48;;;;;;;4.13;2.25;;;;;;;;;;5015666;28;20026;-27
2022/10/12 02:14:22;;;;;;;11.13;2.17;;;;;;;;;;5015710;28;20425;-27
2022/10/12 02:16:57;;;;;;;14.85;2.47;;;;;;;;;;5015676;28;20041;-28
2022/10/12 02:19:27;;;;;;;4.38;1.65;;;;;;;;;;5015888;28;20037;-27
2022/10/12 02:21:55;;;;;;;7.55;2.42;;;;;;;;;;5015491;28;20030;-27
2022/10/12 02:24:23;;;;;;;10.07;2.08;;;;;;;;;;5015461;28;20026;-28
2022/10/12 02:26:51;;;;;;;5.65;1.60;;;;;;;;;;5015512;28;20022;-27
2022/10/12 02:29:20;;;;;;;8.98;2.13;;;;;;;;;;5015420;28;20026;-27
2022/10/12 02:32:01;;;;;;;8.98;2.42;;;;;;;;;;5015309;28;20034;-28
2022/10/12 02:34:33;;;;;;;8.13;2.40;;;;;;;;;;5015695;28;20038;-27
2022/10/12 02:36:59;;;;;;;4.43;1.85;;;;;;;;;;5015332;28;20164;-27
2022/10/12 02:39:30;;;;;;;6.03;2.03;;;;;;;;;;5015288;28;20030;-27
2022/10/12 02:41:59;;;;;;;6.43;2.20;;;;;;;;;;5015279;28;20614;-27
2022/10/12 02:44:31;;;;;;;7.60;2.05;;;;;;;;;;5015535;28;20040;-28
2022/10/12 02:46:58;;;;;;;10.48;2.28;;;;;;;;;;5015421;28;20096;-27
2022/10/12 02:49:26;;;;;;;11.52;2.17;;;;;;;;;;5015395;28;20056;-27
2022/10/12 02:51:53;;;;;;;4.70;2.00;;;;;;;;;;5015039;28;20109;-28
2022/10/12 02:54:20;;;;;;;8.00;2.38;;;;;;;;;;5015097;28;20126;-27
2022/10/12 02:56:46;;;;;;;7.68;2.00;;;;;;;;;;5014519;28;20040;-28
2022/10/12 02:59:13;;;;;;;7.28;2.60;;;;;;;;;;5014991;28;20157;-28
2022/10/12 03:01:39;;;;;;;8.27;2.72;;;;;;;;;;5015017;28;20072;-28
2022/10/12 03:04:05;;;;;;;7.93;1.85;;;;;;;;;;5014600;28;20077;-27
2022/10/12 03:06:31;;;;;;;5.60;1.95;;;;;;;;;;5014942;28;20409;-28
2022/10/12 03:08:58;;;;;;;6.97;1.80;;;;;;;;;;5014879;28;20064;-27
2022/10/12 03:11:24;;;;;;;8.35;3.60;;;;;;;;;;5014857;28;20034;-27
2022/10/12 03:13:54;;;;;;;10.00;2.00;;;;;;;;;;5014805;28;20469;-27
2022/10/12 03:16:20;;;;;;;6.55;2.25;;;;;;;;;;5015079;28;20080;-27
2022/10/12 03:18:46;;;;;;;3.97;2.58;;;;;;;;;;5014781;28;20022;-27
2022/10/12 03:21:13;;;;;;;8.60;1.85;;;;;;;;;;5014733;28;20026;-27
2022/10/12 03:23:39;;;;;;;5.03;1.73;;;;;;;;;;5014616;28;20048;-28
2022/10/12 03:26:05;;;;;;;5.38;2.28;;;;;;;;;;5014955;28;20080;-28
2022/10/12 03:28:31;;;;;;;6.63;1.77;;;;;;;;;;5014933;28;20037;-27
2022/10/12 03:30:58;;;;;;;8.45;2.25;;;;;;;;;;5014699;28;20084;-28
2022/10/12 03:33:25;;;;;;;5.75;1.70;;;;;;;;;;5014667;28;20113;-28
2022/10/12 03:35:51;;;;;;;5.90;1.55;;;;;;;;;;5014564;28;20029;-28
2022/10/12 03:38:18;;;;;;;6.85;1.70;;;;;;;;;;5030038;28;20117;-28
2022/10/12 03:40:44;;;;;;;6.90;2.17;;;;;;;;;;5029947;28;20034;-27
2022/10/12 03:43:11;;;;;;;5.53;1.77;;;;;;;;;;5014468;28;20040;-28
2022/10/12 03:45:37;;;;;;;6.43;1.70;;;;;;;;;;5014415;28;20382;-28
2022/10/12 03:48:04;;;;;;;4.10;1.80;;;;;;;;;;5014729;28;20033;-27
2022/10/12 03:50:32;;;;;;;6.40;2.42;;;;;;;;;;5014451;28;20567;-28
2022/10/12 03:52:58;;;;;;;5.82;2.65;;;;;;;;;;5014315;28;20061;-28
2022/10/12 03:55:24;;;;;;;3.80;1.80;;;;;;;;;;5014374;28;20462;-28
2022/10/12 03:57:50;;;;;;;3.60;2.30;;;;;;;;;;5014350;28;20037;-27
2022/10/12 04:00:17;;;;;;;5.90;2.10;;;;;;;;;;5014533;28;20087;-27
2022/10/12 04:02:43;;;;;;;12.50;2.05;;;;;;;;;;5014104;28;20049;-27
2022/10/12 04:05:09;;;;;;;6.93;2.60;;;;;;;;;;5030460;28;20359;-28
2022/10/12 04:07:36;;;;;;;5.60;2.30;;;;;;;;;;5015864;28;20033;-27
2022/10/12 04:10:03;;;;;;;9.25;2.05;;;;;;;;;;5017038;28;20034;-28
2022/10/12 04:12:30;;;;;;;6.05;2.35;;;;;;;;;;5017897;28;20034;-27
2022/10/12 04:14:56;;;;;;;6.68;1.58;;;;;;;;;;5017904;28;20045;-27
2022/10/12 04:17:22;;;;;;;4.30;2.45;;;;;;;;;;5017903;28;20049;-27
2022/10/12 04:19:48;;;;;;;7.45;2.10;;;;;;;;;;5017811;28;20029;-28
2022/10/12 04:22:14;;;;;;;7.70;1.83;;;;;;;;;;5017522;28;20030;-27
2022/10/12 04:24:41;;;;;;;8.85;1.80;;;;;;;;;;5017454;28;20451;-27
2022/10/12 04:27:07;;;;;;;7.68;1.75;;;;;;;;;;5017300;28;20095;-28
2022/10/12 04:29:34;;;;;;;4.93;2.65;;;;;;;;;;5017444;28;20037;-27
2022/10/12 04:32:00;;;;;;;6.57;2.03;;;;;;;;;;5017124;28;20041;-27
2022/10/12 04:34:26;;;;;;;6.63;2.63;;;;;;;;;;5017019;28;20053;-28
2022/10/12 04:36:52;;;;;;;6.95;2.63;;;;;;;;;;5016717;28;20037;-27
2022/10/12 04:39:18;;;;;;;6.65;2.13;;;;;;;;;;5016746;28;20041;-27
2022/10/12 04:41:44;;;;;;;7.28;2.10;;;;;;;;;;5016645;28;20041;-27
2022/10/12 04:44:10;;;;;;;2.63;1.73;;;;;;;;;;5016660;28;20332;-27
2022/10/12 04:46:36;;;;;;;6.63;1.70;;;;;;;;;;5016987;28;20030;-27
2022/10/12 04:49:03;;;;;;;7.53;2.40;;;;;;;;;;5016901;28;20026;-27
2022/10/12 04:51:29;;;;;;;7.20;2.00;;;;;;;;;;5016605;28;20022;-28
2022/10/12 04:53:55;;;;;;;4.30;1.77;;;;;;;;;;5016505;28;20026;-27
2022/10/12 04:56:21;;;;;;;8.85;3.17;;;;;;;;;;5016769;28;20026;-27
2022/10/12 04:58:47;;;;;;;7.47;1.98;;;;;;;;;;5016468;28;20021;-28
2022/10/12 05:01:13;;;;;;;6.60;2.22;;;;;;;;;;5016709;28;20085;-28
2022/10/12 05:03:39;;;;;;;8.10;2.38;;;;;;;;;;5016233;28;20463;-27
2022/10/12 05:06:06;;;;;;;9.70;2.55;;;;;;;;;;5016262;28;20037;-27
2022/10/12 05:08:32;;;;;;;14.98;2.03;;;;;;;;;;5016288;28;20133;-28
2022/10/12 05:10:58;;;;;;;8.30;2.08;;;;;;;;;;5016156;28;20421;-28
2022/10/12 05:13:27;;;;;;;6.82;2.25;;;;;;;;;;5016080;28;20398;-27
2022/10/12 05:15:54;;;;;;;5.53;2.45;;;;;;;;;;5016139;28;20068;-28
2022/10/12 05:18:20;;;;;;;7.55;1.88;;;;;;;;;;5015745;28;20029;-28
2022/10/12 05:20:46;;;;;;;10.77;2.00;;;;;;;;;;5016036;28;20030;-28
2022/10/12 05:23:12;;;;;;;12.27;2.88;;;;;;;;;;5016084;28;20025;-28
2022/10/12 05:25:38;;;;;;;13.00;3.38;;;;;;;;;;5016858;28;20030;-27
2022/10/12 05:28:06;;;;;;;11.32;2.33;;;;;;;;;;5016213;28;20451;-28
2022/10/12 05:30:32;;;;;;;17.02;3.20;;;;;;;;;;5015947;28;20074;-27
2022/10/12 05:32:59;;;;;;;10.48;2.35;;;;;;;;;;5016067;28;20030;-28
2022/10/12 05:35:25;;;;;;;9.85;1.98;;;;;;;;;;5016019;28;20374;-28
2022/10/12 05:37:51;;;;;;;10.48;2.95;;;;;;;;;;5015761;28;20109;-27
2022/10/12 05:40:18;;;;;;;4.05;2.03;;;;;;;;;;5015595;28;20190;-27
2022/10/12 05:42:44;;;;;;;11.35;2.70;;;;;;;;;;5015463;28;20071;-27
2022/10/12 05:45:11;;;;;;;8.90;2.17;;;;;;;;;;5015612;28;20032;-28
2022/10/12 05:47:37;;;;;;;10.15;3.00;;;;;;;;;;5015658;28;20335;-28
2022/10/12 05:50:04;;;;;;;4.65;1.80;;;;;;;;;;5015540;28;20076;-28
2022/10/12 05:52:30;;;;;;;11.18;2.50;;;;;;;;;;5030860;28;20022;-28
2022/10/12 05:54:57;;;;;;;12.52;2.08;;;;;;;;;;5015342;28;20032;-28
2022/10/12 05:57:23;;;;;;;13.48;2.97;;;;;;;;;;5015271;28;20037;-27
2022/10/12 05:59:49;;;;;;;15.15;2.28;;;;;;;;;;5015461;28;20521;-27
2022/10/12 06:02:16;;;;;;;11.15;2.53;;;;;;;;;;5014838;28;20030;-28
2022/10/12 06:04:42;;;;;;;12.65;2.22;;;;;;;;;;5015092;28;20478;-29
2022/10/12 06:07:09;;;;;;;14.68;2.25;;;;;;;;;;5015396;28;20034;-29
2022/10/12 06:09:38;;;;;;;17.55;3.53;;;;;;;;;;5015015;28;20052;-29
2022/10/12 06:12:05;;;;;;;21.17;2.53;;;;;;;;;;5015024;28;20026;-29
2022/10/12 06:14:31;;;;;;;19.63;3.65;;;;;;;;;;5014143;28;20082;-29
2022/10/12 06:16:58;;;;;;;18.77;2.60;;;;;;;;;;5015017;28;20026;-29
2022/10/12 06:19:24;;;;;;;12.43;2.42;;;;;;;;;;5015112;28;20029;-29
2022/10/12 06:21:50;;;;;;;29.15;4.03;;;;;;;;;;5015020;28;20340;-29
2022/10/12 06:24:16;;;;;;;33.13;4.72;;;;;;;;;;5014871;28;20026;-29
2022/10/12 06:26:42;;;;;;;13.57;3.10;;;;;;;;;;5014740;28;20024;-29
2022/10/12 06:29:08;;;;;;;30.15;3.55;;;;;;;;;;5015040;28;20041;-29
2022/10/12 06:31:36;;;;;;;23.48;2.88;;;;;;;;;;5013878;28;20030;-29
2022/10/12 06:34:02;;;;;;;18.40;2.95;;;;;;;;;;5014649;28;20155;-29
2022/10/12 06:36:29;;;;;;;17.35;2.85;;;;;;;;;;5014594;28;20092;-29
2022/10/12 06:38:55;;;;;;;19.23;4.70;;;;;;;;;;5014479;28;20026;-29
2022/10/12 06:41:21;;;;;;;14.30;2.28;;;;;;;;;;5014815;28;20412;-29
2022/10/12 06:43:47;;;;;;;21.83;2.28;;;;;;;;;;5014556;28;20355;-29
2022/10/12 06:46:13;;;;;;;21.65;2.75;;;;;;;;;;5014507;28;20038;-29
2022/10/12 06:48:39;;;;;;;17.20;2.65;;;;;;;;;;5014384;28;20111;-29
2022/10/12 06:51:05;;;;;;;15.18;2.40;;;;;;;;;;5014617;28;20370;-28
2022/10/12 06:53:33;;;;;;;16.75;3.00;;;;;;;;;;5014185;28;20404;-31
2022/10/12 06:56:00;;;;;;;8.82;2.63;;;;;;;;;;5014548;28;20034;-30
2022/10/12 06:58:26;;;;;;;10.40;2.83;;;;;;;;;;5014269;28;20024;-31
2022/10/12 07:00:52;;;;;;;25.30;4.50;;;;;;;;;;5014178;28;20091;-32
2022/10/12 07:03:19;;;;;;;14.65;2.85;;;;;;;;;;5013974;28;20060;-31
2022/10/12 07:05:45;;;;;;;17.27;2.92;;;;;;;;;;5013896;28;20355;-31
2022/10/12 07:08:11;;;;;;;26.77;4.22;;;;;;;;;;5029167;28;20451;-32
2022/10/12 07:10:38;;;;;;;20.90;3.53;;;;;;;;;;5014217;28;20101;-32
2022/10/12 07:13:04;;;;;;;13.57;2.72;;;;;;;;;;5013999;28;20034;-31
2022/10/12 07:15:30;;;;;;;21.67;4.10;;;;;;;;;;5014321;28;20034;-31
2022/10/12 07:17:56;;;;;;;27.00;3.30;;;;;;;;;;5013924;28;20054;-31
2022/10/12 07:20:22;;;;;;;18.77;4.50;;;;;;;;;;5013927;28;20581;-32
2022/10/12 07:22:48;;;;;;;19.45;3.00;;;;;;;;;;5013943;28;20037;-28
2022/10/12 07:25:15;;;;;;;17.73;3.10;;;;;;;;;;5014202;28;20026;-28
2022/10/12 07:27:41;;;;;;;18.55;3.63;;;;;;;;;;5013926;28;20033;-27
2022/10/12 07:30:07;;;;;;;16.88;3.58;;;;;;;;;;5013882;28;20490;-28
2022/10/12 07:32:33;;;;;;;20.55;3.45;;;;;;;;;;5014095;28;20030;-28
2022/10/12 07:35:00;;;;;;;18.85;2.92;;;;;;;;;;5014109;28;20133;-28
2022/10/12 07:37:26;;;;;;;15.55;3.45;;;;;;;;;;5013877;28;20356;-27
2022/10/12 07:39:56;;;;;;;11.13;3.15;;;;;;;;;;5014172;28;20042;-28
2022/10/12 07:42:22;;;;;;;14.88;3.10;;;;;;;;;;5015272;28;20029;-28
2022/10/12 07:44:48;;;;;;;16.10;2.95;;;;;;;;;;5017740;28;20034;-28
2022/10/12 07:47:16;;;;;;;15.45;3.75;;;;;;;;;;5017733;28;20030;-28
2022/10/12 07:49:43;;;;;;;14.73;2.90;;;;;;;;;;5017747;28;20021;-28
2022/10/12 07:52:09;;;;;;;18.23;2.92;;;;;;;;;;5018229;28;20040;-28
2022/10/12 07:54:35;;;;;;;11.57;3.10;;;;;;;;;;5033126;28;20030;-28
2022/10/12 07:57:01;;;;;;;11.27;3.58;;;;;;;;;;5017668;28;20105;-27
2022/10/12 07:59:27;;;;;;;13.75;4.68;;;;;;;;;;5017561;28;20037;-28
2022/10/12 08:01:53;;;;;;;14.55;3.20;;;;;;;;;;5016590;28;20037;-28
2022/10/12 08:04:19;;;;;;;18.05;2.90;;;;;;;;;;5017236;28;20046;-28
2022/10/12 08:06:46;;;;;;;22.58;4.38;;;;;;;;;;5017755;28;20160;-28
2022/10/12 08:09:12;;;;;;;26.40;5.78;;;;;;;;;;5017374;28;20030;-28
2022/10/12 08:11:39;;;;;;;19.60;4.43;;;;;;;;;;5017312;28;20041;-29
2022/10/12 08:14:06;;;;;;;27.85;3.30;;;;;;;;;;5017281;28;20030;-28
2022/10/12 08:16:32;;;;;;;13.95;4.55;;;;;;;;;;5017531;28;20316;-29
2022/10/12 08:19:00;;;;;;;10.98;4.13;;;;;;;;;;5017111;28;20041;-29
2022/10/12 08:21:26;;;;;;;17.40;3.60;;;;;;;;;;5017070;28;20026;-29
2022/10/12 08:23:52;;;;;;;12.02;3.08;;;;;;;;;;5017299;28;20033;-29
2022/10/12 08:26:18;;;;;;;17.30;2.90;;;;;;;;;;5017263;28;20026;-32
2022/10/12 08:28:45;;;;;;;22.70;4.28;;;;;;;;;;5016871;28;20029;-32
2022/10/12 08:31:12;;;;;;;17.77;3.80;;;;;;;;;;5017008;28;20049;-30
2022/10/12 08:33:39;;;;;;;17.58;3.65;;;;;;;;;;5016869;28;20359;-30
2022/10/12 08:36:06;;;;;;;12.95;3.17;;;;;;;;;;5016823;28;20477;-30
2022/10/12 08:38:32;;;;;;;14.68;3.40;;;;;;;;;;5017318;28;20076;-30
2022/10/12 08:41:19;;;;;;;14.15;3.28;;;;;;;;;;5016782;28;20366;-30
2022/10/12 08:44:04;;;;;;;20.52;2.80;;;;;;;;;;5016663;28;20053;-30
2022/10/12 08:46:30;;;;;;;18.67;3.42;;;;;;;;;;5016959;28;20034;-30
2022/10/12 08:49:06;;;;;;;27.65;5.00;;;;;;;;;;5017072;28;20447;-30
2022/10/12 08:51:34;;;;;;;12.55;3.60;;;;;;;;;;5016891;28;20390;-30
2022/10/12 08:54:00;;;;;;;20.75;4.57;;;;;;;;;;5015900;28;20026;-29
2022/10/12 08:56:26;;;;;;;17.52;3.30;;;;;;;;;;5016638;28;20056;-30
2022/10/12 08:58:53;;;;;;;21.77;3.33;;;;;;;;;;5016808;28;20076;-30
2022/10/12 09:01:37;;;;;;;15.07;3.60;;;;;;;;;;5017219;28;20145;-30
2022/10/12 09:04:04;;;;;;;17.90;2.97;;;;;;;;;;5016127;28;20053;-30
2022/10/12 09:06:33;;;;;;;18.58;3.70;;;;;;;;;;5016726;28;20044;-30
2022/10/12 09:08:59;;;;;;;20.00;3.88;;;;;;;;;;5016368;28;20025;-29
2022/10/12 09:11:28;;;;;;;16.42;3.05;;;;;;;;;;5016317;28;20108;-29
2022/10/12 09:14:12;;;;;;;18.60;3.25;;;;;;;;;;5016152;28;20081;-29
2022/10/12 09:16:43;;;;;;;19.10;3.35;;;;;;;;;;5016174;28;20148;-29
2022/10/12 09:19:16;;;;;;;17.38;3.60;;;;;;;;;;5016120;28;20033;-29
2022/10/12 09:21:42;;;;;;;13.23;4.68;;;;;;;;;;5016315;28;20037;-29
2022/10/12 09:24:13;;;;;;;15.02;3.42;;;;;;;;;;5015878;28;20030;-29
2022/10/12 09:26:39;;;;;;;24.70;3.85;;;;;;;;;;5016241;28;20355;-29
2022/10/12 09:29:31;;;;;;;17.55;3.95;;;;;;;;;;5015909;28;20028;-29
2022/10/12 09:32:16;;;;;;;17.98;3.33;;;;;;;;;;5013384;28;20038;-30
2022/10/12 09:34:43;;;;;;;15.27;2.58;;;;;;;;;;5015947;28;20053;-30
2022/10/12 09:37:14;;;;;;;14.63;3.00;;;;;;;;;;5015628;28;20030;-30
2022/10/12 09:39:41;;;;;;;15.30;2.92;;;;;;;;;;5015933;28;20030;-30
2022/10/12 09:42:08;;;;;;;14.40;3.15;;;;;;;;;;5015979;28;20037;-30
2022/10/12 09:44:38;;;;;;;24.30;5.85;;;;;;;;;;5016374;28;20037;-30
2022/10/12 09:47:06;;;;;;;30.15;4.05;;;;;;;;;;5016062;28;20034;-30
2022/10/12 09:49:42;;;;;;;27.27;4.38;;;;;;;;;;5015614;28;20117;-30
2022/10/12 09:52:09;;;;;;;17.38;3.40;;;;;;;;;;5015914;28;20049;-30
2022/10/12 09:54:39;;;;;;;30.85;4.50;;;;;;;;;;5015534;28;20026;-30
2022/10/12 09:57:06;;;;;;;27.55;4.28;;;;;;;;;;5015521;28;20040;-30
2022/10/12 09:59:39;;;;;;;32.17;5.13;;;;;;;;;;5015722;28;20091;-30
2022/10/12 10:02:11;;;;;;;16.67;4.15;;;;;;;;;;5015570;28;20061;-30
2022/10/12 10:04:38;;;;;;;12.68;3.55;;;;;;;;;;5015381;28;20045;-30
2022/10/12 10:07:26;;;;;;;16.40;3.25;;;;;;;;;;5015345;28;20098;-30
2022/10/12 10:10:11;;;;;;;22.55;3.35;;;;;;;;;;5015342;28;20034;-30
2022/10/12 10:12:48;;;;;;;18.95;4.20;;;;;;;;;;5015234;28;20045;-30
2022/10/12 10:15:20;;;;;;;16.05;2.97;;;;;;;;;;5015520;28;20026;-30
2022/10/12 10:17:49;;;;;;;19.77;3.72;;;;;;;;;;5015495;28;20050;-30
2022/10/12 10:20:24;;;;;;;21.65;3.35;;;;;;;;;;5015228;28;20026;-30
2022/10/12 10:22:50;;;;;;;22.40;3.28;;;;;;;;;;5015094;28;20034;-30
2022/10/12 10:25:20;;;;;;;10.50;3.33;;;;;;;;;;5015274;28;20422;-30
2022/10/12 10:27:46;;;;;;;18.55;3.47;;;;;;;;;;5015019;28;20087;-30
2022/10/12 10:30:15;;;;;;;23.73;3.10;;;;;;;;;;5015309;28;20026;-28
2022/10/12 10:32:42;;;;;;;18.80;3.83;;;;;;;;;;5015126;28;20068;-29
2022/10/12 10:35:08;;;;;;;10.35;3.25;;;;;;;;;;5015264;28;20446;-28
2022/10/12 10:37:35;;;;;;;11.88;4.72;;;;;;;;;;5015176;28;20355;-28
2022/10/12 10:40:02;;;;;;;19.02;3.58;;;;;;;;;;5014873;28;20044;-29
2022/10/12 10:42:30;;;;;;;23.70;3.75;;;;;;;;;;5015055;28;20118;-29
2022/10/12 10:44:58;;;;;;;16.48;3.15;;;;;;;;;;5014853;28;20069;-28
2022/10/12 10:47:25;;;;;;;24.90;5.25;;;;;;;;;;5015083;28;20038;-29
2022/10/12 10:49:58;;;;;;;17.23;3.50;;;;;;;;;;5014795;28;20040;-29
2022/10/12 10:52:34;;;;;;;24.23;3.40;;;;;;;;;;5014994;28;20033;-29
2022/10/12 10:55:06;;;;;;;17.10;3.40;;;;;;;;;;5014940;28;20033;-29
2022/10/12 10:57:33;;;;;;;19.23;4.00;;;;;;;;;;5014887;28;20061;-28
2022/10/12 11:00:16;;;;;;;38.88;4.35;;;;;;;;;;5014719;28;20389;-29
2022/10/12 11:02:47;;;;;;;33.00;6.50;;;;;;;;;;5014019;28;20042;-29
2022/10/12 11:05:18;;;;;;;30.85;3.80;;;;;;;;;;5014305;28;20447;-29
2022/10/12 11:07:49;;;;;;;30.13;4.82;;;;;;;;;;5014451;28;20030;-29
2022/10/12 11:10:21;;;;;;;31.30;4.72;;;;;;;;;;5014552;28;20026;-29
2022/10/12 11:12:49;;;;;;;110.57;9.43;;;;;;;;;;5014515;28;20030;-29
2022/10/12 11:15:19;;;;;;;27.17;4.20;;;;;;;;;;5014243;28;20153;-29
2022/10/12 11:17:48;;;;;;;35.40;7.27;;;;;;;;;;5013766;28;20041;-28
2022/10/12 11:20:17;;;;;;;33.30;5.03;;;;;;;;;;5014439;28;20109;-28
2022/10/12 11:22:49;;;;;;;25.30;4.93;;;;;;;;;;5013957;28;20041;-29
2022/10/12 11:25:18;;;;;;;33.67;5.10;;;;;;;;;;5014101;28;20034;-29
2022/10/12 11:27:44;;;;;;;31.15;6.47;;;;;;;;;;5014272;28;20025;-28
2022/10/12 11:30:16;;;;;;;23.95;3.67;;;;;;;;;;5014286;28;20025;-29
2022/10/12 11:32:42;;;;;;;;;;;;;;;;;;5014605;28;20137;-29
2022/10/12 11:35:13;;;;;;;39.15;3.88;;;;;;;;;;5014211;28;20354;-29
2022/10/12 11:37:42;;;;;;;32.85;3.92;;;;;;;;;;5014020;28;20026;-29
2022/10/12 11:40:17;;;;;;;24.13;3.70;;;;;;;;;;5013963;28;20451;-29
2022/10/12 11:42:43;;;;;;;23.48;5.28;;;;;;;;;;5014209;28;20042;-28
2022/10/12 11:45:18;;;;;;;19.20;3.80;;;;;;;;;;5013844;28;20025;-29
2022/10/12 11:47:46;;;;;;;29.98;3.85;;;;;;;;;;5014388;28;20040;-29
2022/10/12 11:50:29;;;;;;;25.95;3.65;;;;;;;;;;5013404;28;20038;-29
2022/10/12 11:52:56;;;;;;;28.58;3.60;;;;;;;;;;5014578;28;20423;-29
2022/10/12 11:55:28;;;;;;;35.72;5.10;;;;;;;;;;5014358;28;20062;-29
2022/10/12 11:57:56;;;;;;;17.60;4.70;;;;;;;;;;5014304;28;20053;-29
2022/10/12 12:00:25;;;;;;;20.88;4.95;;;;;;;;;;5014335;28;20058;-29
2022/10/12 12:03:10;;;;;;;26.17;3.85;;;;;;;;;;5013950;28;20096;-29
2022/10/12 12:05:36;;;;;;;25.50;4.80;;;;;;;;;;5014084;28;20038;-29
2022/10/12 12:08:02;;;;;;;21.58;4.05;;;;;;;;;;5014148;28;20029;-29
2022/10/12 12:10:30;;;;;;;23.38;4.72;;;;;;;;;;5014995;28;20412;-29
2022/10/12 12:13:11;;;;;;;17.63;4.30;;;;;;;;;;5014371;28;20041;-28
2022/10/12 12:15:37;;;;;;;;;;;;;;;;;;5014693;28;20053;-29
2022/10/12 12:18:09;;;;;;;26.23;4.63;;;;;;;;;;5014085;28;19909;-29
2022/10/12 12:20:42;;;;;;;19.83;3.40;;;;;;;;;;5014402;28;20136;-28
2022/10/12 12:23:17;;;;;;;29.75;4.10;;;;;;;;;;5013970;28;20062;-28
2022/10/12 12:25:43;;;;;;;26.70;4.65;;;;;;;;;;5014179;28;20374;-29
2022/10/12 12:28:23;;;;;;;24.73;4.07;;;;;;;;;;5013947;28;20021;-28
2022/10/12 12:30:57;;;;;;;27.92;3.72;;;;;;;;;;5032828;28;20049;-28
2022/10/12 12:33:27;;;;;;;22.40;3.42;;;;;;;;;;5017006;28;20053;-28
2022/10/12 12:35:55;;;;;;;21.63;3.55;;;;;;;;;;5017698;28;20061;-28
2022/10/12 12:38:24;;;;;;;18.50;3.78;;;;;;;;;;5017508;28;20025;-28
2022/10/12 12:41:10;;;;;;;38.70;5.70;;;;;;;;;;5017386;28;20029;-29
2022/10/12 12:43:49;;;;;;;54.40;9.02;;;;;;;;;;5017581;28;20034;-28
2022/10/12 12:46:15;;;;;;;20.80;4.82;;;;;;;;;;5017217;28;20040;-28
2022/10/12 12:48:41;;;;;;;28.08;6.20;;;;;;;;;;5017173;28;20446;-29
2022/10/12 12:51:09;;;;;;;40.83;4.97;;;;;;;;;;5017140;28;20481;-28
2022/10/12 12:53:42;;;;;;;23.95;4.18;;;;;;;;;;5017070;28;20022;-29
2022/10/12 12:56:31;;;;;;;24.58;4.25;;;;;;;;;;5017017;28;20029;-28
2022/10/12 12:59:04;;;;;;;27.40;3.53;;;;;;;;;;4989397;28;20121;-28
2022/10/12 13:01:47;;;;;;;16.42;3.90;;;;;;;;;;5016870;28;20040;-28
2022/10/12 13:04:17;;;;;;;24.10;3.92;;;;;;;;;;5016708;28;20077;-29
2022/10/12 13:07:01;;;;;;;24.73;3.70;;;;;;;;;;5016739;28;20041;-28
2022/10/12 13:09:36;;;;;;;45.08;5.25;;;;;;;;;;5017048;28;20018;-29
2022/10/12 13:12:17;;;;;;;28.23;3.67;;;;;;;;;;5016675;28;20105;-28
2022/10/12 13:14:50;;;;;;;26.45;4.07;;;;;;;;;;5016689;28;20095;-29
2022/10/12 13:17:31;;;;;;;46.97;5.82;;;;;;;;;;5016967;28;20030;-29
2022/10/12 13:19:59;;;;;;;31.77;5.28;;;;;;;;;;5017240;28;20061;-28
2022/10/12 13:22:27;;;;;;;25.20;4.35;;;;;;;;;;5016599;28;20101;-28
2022/10/12 13:24:54;;;;;;;22.35;4.53;;;;;;;;;;5016688;28;20029;-28
2022/10/12 13:27:23;;;;;;;35.63;4.53;;;;;;;;;;5016553;28;20033;-28
2022/10/12 13:29:50;;;;;;;31.33;5.57;;;;;;;;;;5016441;28;20030;-28
2022/10/12 13:32:36;;;;;;;28.92;7.50;;;;;;;;;;5016624;28;20455;-28
2022/10/12 13:35:15;;;;;;;89.10;10.43;;;;;;;;;;5016381;28;20030;-28
2022/10/12 13:37:41;;;;;;;47.35;5.05;;;;;;;;;;5016674;28;20463;-29
2022/10/12 13:40:26;;;;;;;34.70;6.50;;;;;;;;;;5015941;28;20072;-29
2022/10/12 13:42:52;;;;;;;28.25;5.50;;;;;;;;;;5016456;28;20045;-28
2022/10/12 13:45:19;;;;;;;35.97;5.05;;;;;;;;;;5016176;28;20064;-28
2022/10/12 13:47:45;;;;;;;30.60;5.43;;;;;;;;;;5016317;28;20022;-29
2022/10/12 13:50:19;;;;;;;38.88;4.38;;;;;;;;;;5031675;28;20061;-29
2022/10/12 13:52:52;;;;;;;23.05;3.70;;;;;;;;;;5016840;28;20026;-29
2022/10/12 13:55:18;;;;;;;45.65;4.78;;;;;;;;;;5016381;28;20056;-29
2022/10/12 13:57:47;;;;;;;30.95;6.47;;;;;;;;;;5015888;28;20030;-29
2022/10/12 14:00:13;;;;;;;41.10;8.13;;;;;;;;;;5016171;28;20037;-29
2022/10/12 14:02:39;;;;;;;33.20;4.55;;;;;;;;;;5015583;28;20392;-29
2022/10/12 14:05:14;;;;;;;47.30;6.95;;;;;;;;;;5015799;28;20030;-29
2022/10/12 14:07:41;;;;;;;24.88;5.28;;;;;;;;;;5015883;28;20096;-28
2022/10/12 14:10:18;;;;;;;45.95;6.43;;;;;;;;;;5015882;28;20363;-28
2022/10/12 14:12:45;;;;;;;49.47;6.60;;;;;;;;;;5015962;28;20024;-28
2022/10/12 14:15:12;;;;;;;42.35;5.55;;;;;;;;;;5015690;28;20113;-29
2022/10/12 14:17:45;;;;;;;31.13;5.72;;;;;;;;;;5015915;28;20455;-29
2022/10/12 14:20:38;;;;;;;28.05;4.78;;;;;;;;;;5015607;28;20034;-28
2022/10/12 14:23:10;;;;;;;40.55;5.63;;;;;;;;;;5012900;28;20384;-28
2022/10/12 14:25:36;;;;;;;28.42;6.93;;;;;;;;;;5015468;28;20026;-28
2022/10/12 14:28:06;;;;;;;37.50;5.68;;;;;;;;;;5015480;28;20060;-28
2022/10/12 14:30:50;;;;;;;40.17;5.88;;;;;;;;;;5015723;28;20113;-28
2022/10/12 14:33:16;;;;;;;29.70;5.78;;;;;;;;;;5015630;28;20101;-28
2022/10/12 14:35:46;;;;;;;34.47;5.88;;;;;;;;;;5015655;28;20216;-28
2022/10/12 14:38:31;;;;;;;35.63;4.10;;;;;;;;;;5015592;28;20056;-28
2022/10/12 14:40:57;;;;;;;30.40;3.92;;;;;;;;;;5015459;28;20046;-28
2022/10/12 14:43:27;;;;;;;36.05;3.92;;;;;;;;;;5015212;28;20029;-28
2022/10/12 14:45:53;;;;;;;25.42;4.43;;;;;;;;;;5015106;28;20025;-28